Flight Track Log - Related Links

Times and Time Zones

All times are in EDT time to prevent confusion due to time zone crossing. See the N589H flight status page for this flight to view local times or setup timezone preferences in your user account.

Time Position Orientation Groundspeed Altitude Reporting Facility
EDT Latitude Longitude Course Direction KTS MPH feet Rate Location/Type
Fri 04:32:18 AM 40.8167 -74.1333 225° Southwest 202 232 2,100  Level New York TRACON
Fri 04:34:31 AM 40.7422 -74.2303 225° Southwest 169 194 32,000 9,247 Climbing New York Center
Fri 04:35:32 AM 40.7242 -74.2761 243° Southwest 162 186 32,000 -10,034 Level New York Center
Fri 04:36:30 AM 40.6994 -74.3350 241° Southwest 359 413 12,100 -9,000 Descending New York Center
Fri 04:37:32 AM 40.6794 -74.3803 240° Southwest 263 303 14,000 2,050 Climbing New York Center
Fri 04:38:30 AM 40.6525 -74.4392 239° Southwest 195 224 16,200 1,966 Climbing New York Center
Fri 04:39:31 AM 40.6322 -74.4872 241° Southwest 177 204 17,900 1,623 Climbing New York Center
Fri 04:40:32 AM 40.5992 -74.5456 233° Southwest 177 204 19,500 1,563 Climbing New York Center
Fri 04:41:30 AM 40.5564 -74.5842 214° Southwest 182 209 21,000 1,576 Climbing New York Center
Fri 04:42:30 AM 40.5156 -74.6231 216° Southwest 188 216 22,600 1,250 Climbing New York Center
Fri 04:43:30 AM 40.4703 -74.6667 216° Southwest 195 224 23,500 735 Climbing New York Center
Fri 04:45:46 AM 40.3461 -74.7778 214° Southwest 244 281 25,000 615 Climbing Washington Center
Fri 04:46:45 AM 40.2922 -74.8300 216° Southwest 256 295 25,500 504 Climbing Washington Center
Fri 04:47:45 AM 40.2344 -74.8850 216° Southwest 256 295 26,000 550 Climbing Washington Center
Fri 04:48:45 AM 40.1658 -74.9481 215° Southwest 267 307 26,600 545 Climbing Washington Center
Fri 04:49:46 AM 40.1078 -75.0003 215° Southwest 279 321 27,100 500 Climbing Washington Center
Fri 04:50:45 AM 40.0394 -75.0631 215° Southwest 285 328 27,600 496 Climbing Washington Center
Fri 04:51:47 AM 39.9792 -75.1178 215° Southwest 285 328 28,100 500 Climbing Washington Center
Fri 04:52:45 AM 39.9128 -75.1803 216° Southwest 285 328 28,600 504 Climbing Washington Center
Fri 04:53:46 AM 39.8464 -75.2428 216° Southwest 290 334 29,100 500 Climbing Washington Center
Fri 04:54:45 AM 39.7800 -75.3025 215° Southwest 290 334 29,600 504 Climbing Washington Center
Fri 04:55:45 AM 39.7133 -75.3622 215° Southwest 290 334 30,100 496 Climbing Washington Center
Fri 04:56:46 AM 39.6489 -75.4192 214° Southwest 285 328 30,600 500 Climbing Washington Center
Fri 04:57:45 AM 39.5803 -75.4783 214° Southwest 285 328 31,100 504 Climbing Washington Center
Fri 04:58:45 AM 39.5178 -75.5350 215° Southwest 285 328 31,600 400 Climbing Washington Center
Fri 04:59:45 AM 39.4531 -75.5942 215° Southwest 285 328 31,900 148 Climbing Washington Center
Fri 05:00:47 AM 39.3864 -75.6533 214° Southwest 285 328 31,900  Level Washington Center
Fri 05:01:45 AM 39.3197 -75.7122 214° Southwest 285 328 31,900  Level Washington Center
Fri 05:02:45 AM 39.2528 -75.7739 216° Southwest 290 334 31,900  Level Washington Center
Fri 05:03:45 AM 39.1842 -75.8325 214° Southwest 290 334 31,900  Level Washington Center
Fri 05:04:48 AM 39.1172 -75.8939 215° Southwest 295 339 31,900  Level Washington Center
Fri 05:05:45 AM 39.0461 -75.9525 213° Southwest 295 339 31,900  Level Washington Center
Fri 05:06:46 AM 38.9772 -76.0136 215° Southwest 300 345 31,900  Level Washington Center
Fri 05:07:45 AM 38.9081 -76.0744 214° Southwest 310 357 31,900  Level Washington Center
Fri 05:08:46 AM 38.8392 -76.1353 215° Southwest 310 357 31,900  Level Washington Center
Fri 05:09:45 AM 38.7658 -76.1961 213° Southwest 315 362 31,900  Level Washington Center
Fri 05:10:45 AM 38.6947 -76.2592 215° Southwest 315 362 31,900  Level Washington Center
Fri 05:11:47 AM 38.6233 -76.3225 215° Southwest 310 357 31,900  Level Washington Center
Fri 05:12:47 AM 38.5522 -76.3828 214° Southwest 310 357 31,900 50 Level Washington Center
Fri 05:13:47 AM 38.4831 -76.4458 216° Southwest 310 357 32,000  Climbing Washington Center
Fri 05:14:47 AM 38.4075 -76.5083 213° Southwest 310 357 31,900 -50 Descending Washington Center
Fri 05:15:46 AM 38.3361 -76.5711 215° Southwest 310 357 31,900  Level Washington Center
Fri 05:16:45 AM 38.2647 -76.6311 213° Southwest 310 357 31,900  Level Washington Center
Fri 05:17:45 AM 38.1933 -76.6881 212° Southwest 310 357 31,900  Level Washington Center
Fri 05:18:45 AM 38.1197 -76.7531 215° Southwest 310 357 31,900  Level Washington Center
Fri 05:19:45 AM 38.0461 -76.8153 214° Southwest 310 357 31,900 50 Level Washington Center
Fri 05:20:45 AM 37.9722 -76.8797 215° Southwest 315 362 32,000  Climbing Washington Center
Fri 05:21:48 AM 37.8967 -76.9444 214° Southwest 320 368 31,900 -50 Descending Washington Center
Fri 05:22:46 AM 37.8228 -77.0061 213° Southwest 320 368 31,900  Level Washington Center
Fri 05:23:46 AM 37.7450 -77.0703 213° Southwest 325 374 31,900  Level Washington Center
Fri 05:24:46 AM 37.6711 -77.1319 213° Southwest 325 374 31,900 50 Level Washington Center
Fri 05:25:45 AM 37.5889 -77.2036 215° Southwest 331 381 32,000  Climbing Washington Center
Fri 05:26:45 AM 37.5150 -77.2675 214° Southwest 331 381 31,900 -50 Descending Washington Center
Fri 05:27:45 AM 37.4389 -77.3311 214° Southwest 331 381 31,900  Level Washington Center
Fri 05:28:45 AM 37.3608 -77.3947 213° Southwest 331 381 31,900  Level Washington Center
Fri 05:29:46 AM 37.2847 -77.4583 214° Southwest 331 381 31,900  Level Washington Center
Fri 05:30:48 AM 37.2089 -77.5189 212° Southwest 331 381 31,900 50 Level Washington Center
Fri 05:31:46 AM 37.1406 -77.6006 224° Southwest 336 387 32,000  Climbing Washington Center
Fri 05:32:48 AM 37.0850 -77.6772 228° Southwest 336 387 31,900 -50 Descending Washington Center
Fri 05:33:46 AM 37.0150 -77.7508 220° Southwest 336 387 31,900  Level Washington Center
Fri 05:34:46 AM 36.9386 -77.8136 213° Southwest 336 387 31,900  Level Washington Center
Fri 05:35:46 AM 36.8603 -77.8764 213° Southwest 341 392 31,900  Level Washington Center
Fri 05:36:47 AM 36.7819 -77.9361 211° Southwest 341 392 31,900  Level Washington Center
Fri 05:37:45 AM 36.7078 -77.9989 214° Southwest 335 386 31,900  Level Washington Center
Fri 05:38:45 AM 36.6292 -78.0611 212° Southwest 335 386 31,900  Level Washington Center
Fri 05:39:47 AM 36.5550 -78.1233 214° Southwest 335 386 31,900  Level Washington Center
Fri 05:40:47 AM 36.4783 -78.1881 214° Southwest 335 386 31,900  Level Washington Center
Fri 05:41:47 AM 36.4019 -78.2500 213° Southwest 335 386 31,900  Level Washington Center
Fri 05:42:46 AM 36.3256 -78.3092 212° Southwest 335 386 31,900  Level Washington Center
Fri 05:43:47 AM 36.2469 -78.3708 212° Southwest 335 386 31,900  Level Washington Center
Fri 05:44:46 AM 36.1683 -78.4325 212° Southwest 335 386 31,900  Level Washington Center
Fri 05:45:47 AM 36.0917 -78.4914 212° Southwest 335 386 31,900  Level Washington Center
Fri 05:46:46 AM 36.0153 -78.5528 213° Southwest 335 386 31,900  Level Washington Center
Fri 05:47:47 AM 35.9386 -78.6142 213° Southwest 335 386 31,900  Level Washington Center
Fri 05:48:46 AM 35.8619 -78.6753 213° Southwest 335 386 31,900  Level Washington Center
Fri 05:49:46 AM 35.7853 -78.7336 212° Southwest 335 386 31,900  Level Washington Center
Fri 05:50:45 AM 35.7064 -78.7944 212° Southwest 335 386 31,900  Level Washington Center
Fri 05:51:47 AM 35.6297 -78.8553 213° Southwest 335 386 31,900  Level Washington Center
Fri 05:52:47 AM 35.5508 -78.9158 212° Southwest 335 386 31,900  Level Washington Center
Fri 05:53:45 AM 35.4719 -78.9739 211° Southwest 335 386 31,900  Level Washington Center
Fri 05:54:47 AM 35.3931 -79.0342 212° Southwest 335 386 31,900  Level Washington Center
Fri 05:55:46 AM 35.3161 -79.0944 213° Southwest 329 379 31,900  Level Washington Center
Fri 05:56:46 AM 35.2372 -79.1547 212° Southwest 339 390 31,900  Level Washington Center
Fri 05:58:39 AM 35.0881 -79.2675 212° Southwest 337 388 31,900  Level Jacksonville Center
Fri 05:59:39 AM 35.0083 -79.3267 211° Southwest 337 388 31,900  Level Jacksonville Center
Fri 06:00:39 AM 34.9308 -79.3831 211° Southwest 337 388 31,900  Level Jacksonville Center
Fri 06:01:39 AM 34.8531 -79.4419 212° Southwest 337 388 31,900  Level Jacksonville Center
Fri 06:02:39 AM 34.7733 -79.5008 211° Southwest 337 388 31,900  Level Jacksonville Center
Fri 06:03:39 AM 34.6958 -79.5619 213° Southwest 337 388 31,900  Level Jacksonville Center
Fri 06:04:39 AM 34.6181 -79.6206 212° Southwest 337 388 31,900  Level Jacksonville Center
Fri 06:05:39 AM 34.5381 -79.6764 210° Southwest 337 388 31,900  Level Jacksonville Center
Fri 06:06:39 AM 34.4647 -79.7422 217° Southwest 337 388 31,900  Level Jacksonville Center
Fri 06:07:39 AM 34.3869 -79.8003 212° Southwest 331 381 31,900  Level Jacksonville Center
Fri 06:08:39 AM 34.3069 -79.8583 211° Southwest 331 381 31,900  Level Jacksonville Center
Fri 06:09:39 AM 34.2289 -79.9164 212° Southwest 336 387 31,900  Level Jacksonville Center
Fri 06:10:39 AM 34.1469 -79.9744 210° Southwest 336 387 31,900  Level Jacksonville Center
Fri 06:11:39 AM 34.0692 -80.0347 213° Southwest 336 387 31,900  Level Jacksonville Center
Fri 06:12:39 AM 33.9911 -80.0947 213° Southwest 336 387 31,900  Level Jacksonville Center
Fri 06:13:39 AM 33.9111 -80.1525 211° Southwest 336 387 31,900  Level Jacksonville Center
Fri 06:14:39 AM 33.8308 -80.2125 212° Southwest 336 387 31,900  Level Jacksonville Center
Fri 06:15:39 AM 33.7486 -80.2700 210° Southwest 336 387 31,900  Level Jacksonville Center
Fri 06:16:39 AM 33.6706 -80.3297 212° Southwest 341 392 31,900  Level Jacksonville Center
Fri 06:17:39 AM 33.5925 -80.3892 212° Southwest 341 392 31,900  Level Jacksonville Center
Fri 06:18:39 AM 33.5100 -80.4464 210° Southwest 341 392 31,900  Level Jacksonville Center
Fri 06:19:39 AM 33.4319 -80.5058 212° Southwest 341 392 31,900  Level Jacksonville Center
Fri 06:20:39 AM 33.3494 -80.5653 211° Southwest 341 392 31,900  Level Jacksonville Center
Fri 06:21:39 AM 33.2692 -80.6244 212° Southwest 341 392 31,900  Level Jacksonville Center
Fri 06:22:39 AM 33.1889 -80.6811 211° Southwest 341 392 31,900  Level Jacksonville Center
Fri 06:23:39 AM 33.0981 -80.7453 211° Southwest 341 392 31,900  Level Jacksonville Center
Fri 06:24:39 AM 33.0178 -80.8042 212° Southwest 341 392 31,900  Level Jacksonville Center
Fri 06:25:39 AM 32.9350 -80.8581 209° Southwest 341 392 31,900  Level Jacksonville Center
Fri 06:26:39 AM 32.8436 -80.8872 195° South 341 392 31,900  Level Jacksonville Center
Fri 06:27:39 AM 32.7544 -80.9164 195° South 341 392 31,900  Level Jacksonville Center
Fri 06:28:39 AM 32.6631 -80.9456 195° South 341 392 31,900  Level Jacksonville Center
Fri 06:29:39 AM 32.5694 -80.9747 195° South 340 391 31,900  Level Jacksonville Center
Fri 06:30:39 AM 32.4781 -81.0039 195° South 340 391 31,900  Level Jacksonville Center
Fri 06:31:39 AM 32.3950 -81.0300 195° South 340 391 31,900  Level Jacksonville Center
Fri 06:32:39 AM 32.3056 -81.0589 195° South 335 386 31,900  Level Jacksonville Center
Fri 06:33:39 AM 32.1997 -81.0906 194° South 352 405 31,900  Level Jacksonville Center
Fri 06:34:39 AM 32.1061 -81.1217 196° South 346 398 31,900  Level Jacksonville Center
Fri 06:35:39 AM 32.0147 -81.1481 194° South 346 398 31,900  Level Jacksonville Center
Fri 06:36:39 AM 31.9211 -81.1792 196° South 346 398 31,900  Level Jacksonville Center
Fri 06:38:39 AM 31.7381 -81.2389 194° South 346 398 31,900  Level Jacksonville Center
Fri 06:39:39 AM 31.6489 -81.2672 195° South 346 398 31,900  Level Jacksonville Center
Fri 06:40:39 AM 31.5636 -81.2931 194° South 338 389 31,900  Level Jacksonville Center
Fri 06:41:39 AM 31.4636 -81.3239 195° South 338 389 31,900  Level Jacksonville Center
Fri 06:42:39 AM 31.3806 -81.3497 195° South 338 389 31,900  Level Jacksonville Center
Fri 06:43:39 AM 31.2889 -81.3781 195° South 338 389 31,900  Level Jacksonville Center
Fri 06:44:39 AM 31.1953 -81.4061 194° South 338 389 31,900  Level Jacksonville Center
Fri 06:45:39 AM 31.1058 -81.4344 195° South 338 389 31,900  Level Jacksonville Center
Fri 06:46:39 AM 31.0144 -81.4625 195° South 338 389 31,900  Level Jacksonville Center
Fri 06:47:39 AM 30.9206 -81.4906 194° South 338 389 31,900  Level Jacksonville Center
Fri 06:48:39 AM 30.8292 -81.5183 195° South 338 389 31,900  Level Jacksonville Center
Fri 06:49:39 AM 30.7375 -81.5439 193° South 338 389 31,900  Level Jacksonville Center
Fri 06:50:39 AM 30.6458 -81.5742 196° South 338 389 31,900  Level Jacksonville Center
Fri 06:51:39 AM 30.5522 -81.6019 194° South 338 389 31,900  Level Jacksonville Center
Fri 06:52:39 AM 30.4606 -81.6275 194° South 338 389 31,900  Level Jacksonville Center
Fri 06:53:39 AM 30.3586 -81.6600 195° South 338 389 31,900  Level Jacksonville Center
Fri 06:54:39 AM 30.2650 -81.6853 193° South 338 389 31,900  Level Jacksonville Center
Fri 06:55:39 AM 30.1714 -81.7153 195° South 343 395 31,900  Level Jacksonville Center
Fri 06:56:39 AM 30.0817 -81.7403 194° South 336 387 31,900  Level Jacksonville Center
Fri 06:57:39 AM 29.9881 -81.7728 197° South 341 392 31,900  Level Jacksonville Center
Fri 06:58:39 AM 29.8964 -81.8000 194° South 341 392 31,900 -200 Level Jacksonville Center
Fri 06:59:39 AM 29.8028 -81.8297 195° South 341 392 31,500 -600 Descending Jacksonville Center
Fri 07:00:39 AM 29.7092 -81.8572 194° South 341 392 30,700 -750 Descending Jacksonville Center
Fri 07:01:39 AM 29.6092 -81.8869 194° South 359 413 30,000 -1,000 Descending Jacksonville Center
Fri 07:02:39 AM 29.5069 -81.9189 195° South 364 419 28,700 -1,450 Descending Jacksonville Center
Fri 07:03:39 AM 29.4069 -81.9461 193° South 370 426 27,100 -1,800 Descending Jacksonville Center
Fri 07:04:39 AM 29.3092 -81.9781 196° South 375 432 25,100 -1,800 Descending Jacksonville Center
Fri 07:05:39 AM 29.2319 -81.9956 191° South 375 432 23,500 -1,850 Descending Jacksonville Center
Fri 07:06:39 AM 29.1300 -82.0272 195° South 362 417 21,400 -2,050 Descending Jacksonville Center
Fri 07:07:39 AM 29.0406 -82.0542 195° South 350 403 19,400 -2,000 Descending Jacksonville Center
Fri 07:08:39 AM 28.9489 -82.0811 194° South 344 396 17,400 -2,400 Descending Jacksonville Center
Fri 07:09:39 AM 28.8633 -82.1078 195° South 332 382 14,600 -2,750 Descending Jacksonville Center
Fri 07:10:39 AM 28.7842 -82.1297 194° South 314 361 11,900 -1,091 Descending Jacksonville Center
Fri 07:12:57 AM 28.6167 -82.2167 205° Southwest 286 329 11,000 -273 Descending Tampa TRACON
Fri 07:13:57 AM 28.5667 -82.2833 230° Southwest 292 336 11,000 -250 Level Tampa TRACON
Fri 07:14:57 AM 28.5000 -82.3333 213° Southwest 286 329 10,500 -496 Descending Tampa TRACON
Fri 07:15:58 AM 28.4500 -82.4000 230° Southwest 282 325 10,000 -496 Descending Tampa TRACON
Fri 07:16:58 AM 28.3833 -82.4333 204° Southwest 280 322 9,500 -500 Descending Tampa TRACON
Fri 07:17:58 AM 28.3000 -82.4833 208° Southwest 282 325 9,000 -800 Descending Tampa TRACON
Fri 07:18:58 AM 28.2333 -82.5333 213° Southwest 285 328 7,900 -1,350 Descending Tampa TRACON
Fri 07:19:58 AM 28.1667 -82.5667 204° Southwest 283 326 6,300 -1,900 Descending Tampa TRACON
Fri 07:20:58 AM 28.1167 -82.6000 210° Southwest 222 255 4,100 -2,000 Descending Tampa TRACON
Fri 07:21:58 AM 28.0500 -82.6333 204° Southwest 180 207 2,300 -1,100 Descending Tampa TRACON
Fri 07:22:58 AM 28.0167 -82.6667 221° Southwest 177 204 1,900 -550 Descending Tampa TRACON
Fri 07:23:58 AM 27.9833 -82.7000 221° Southwest 150 173 1,200 -700 Descending Tampa TRACON
Fri 07:24:58 AM 27.9500 -82.7000 180° South 123 142 500 -700 Descending Tampa TRACON
Fri 07:27:00 AM 27.9100 -82.6875 204° Southwest  Level Estimated
Fri 07:34:00 AM 27.9100 -82.6875 204° Southwest  Level Estimated

Login

Don't have an account? Register now (free) for customized features, flight alerts, and more!